Time;durP1;ratioP1;P1;durP2;ratioP2;P2;SDS_P1;SDS_P2;PMS_P1;PMS_P2;Temp;Humidity;BMP_temperature;BMP_pressure;BME280_temperature;BME280_humidity;BME280_pressure;Samples;Min_cycle;Max_cycle;Signal;HPM_P1;HPM_P2
2022/09/05 00:00:04;;;;;;;7.63;4.90;;;;;;;18.29;82.71;97578.66;5006408;28;20598;-69
2022/09/05 00:02:41;;;;;;;7.10;4.85;;;;;;;18.24;82.80;97583.91;5006298;28;20046;-69
2022/09/05 00:05:41;;;;;;;6.40;4.55;;;;;;;17.60;86.68;97583.28;5005004;28;20508;-69
2022/09/05 00:08:35;;;;;;;6.70;4.78;;;;;;;17.59;87.39;97578.91;5020021;28;20060;-69
2022/09/05 00:11:14;;;;;;;16.52;6.65;;;;;;;17.78;86.82;97592.47;5045815;28;20064;-67
2022/09/05 00:14:26;;;;;;;10.10;5.80;;;;;;;17.98;85.74;97585.19;5044857;28;20057;-69
2022/09/05 00:17:21;;;;;;;5.97;4.70;;;;;;;18.01;85.23;97579.59;5045279;28;20053;-69
2022/09/05 00:20:24;;;;;;;6.00;4.38;;;;;;;18.03;84.64;97581.97;5044243;28;20461;-69
2022/09/05 00:23:27;;;;;;;6.35;5.35;;;;;;;17.48;84.97;97505.28;5045472;28;20545;-68
2022/09/05 00:26:52;;;;;;;9.15;5.53;;;;;;;18.00;84.92;97574.38;5044452;28;20098;-67
2022/09/05 00:29:21;;;;;;;9.27;5.07;;;;;;;18.01;85.01;97579.59;5045676;28;20114;-67
2022/09/05 00:32:20;;;;;;;8.25;5.28;;;;;;;18.01;85.00;97578.78;5044167;28;20095;-69
2022/09/05 00:34:52;;;;;;;6.90;5.32;;;;;;;17.67;85.23;97530.03;5045609;28;20481;-69
2022/09/05 00:37:41;;;;;;;7.93;5.78;;;;;;;17.95;85.44;97574.78;5045568;28;20478;-69
2022/09/05 00:40:13;;;;;;;6.22;4.45;;;;;;;17.63;84.91;97518.03;5023557;28;20543;-68
2022/09/05 00:42:48;;;;;;;6.05;4.55;;;;;;;17.52;85.09;97531.28;5044392;28;20447;-68
2022/09/05 00:45:24;;;;;;;7.00;4.32;;;;;;;17.87;85.86;97585.25;5043321;28;20059;-68
2022/09/05 00:48:32;;;;;;;6.45;4.55;;;;;;;17.85;86.17;97570.81;5045508;28;20534;-67
2022/09/05 00:51:36;;;;;;;6.32;4.18;;;;;;;17.90;85.91;97629.28;4982847;28;20058;-67
2022/09/05 00:54:17;;;;;;;7.18;5.05;;;;;;;17.93;86.13;97577.19;4966627;28;20058;-68
2022/09/05 00:57:29;;;;;;;7.85;5.13;;;;;;;17.93;86.13;97577.19;5037464;28;20063;-67
2022/09/05 01:00:21;;;;;;;5.55;4.72;;;;;;;17.89;86.16;97577.19;5045080;28;20522;-68
2022/09/05 01:03:25;;;;;;;9.05;4.95;;;;;;;17.96;85.65;97579.19;5043557;28;20140;-68
2022/09/05 01:05:58;;;;;;;6.80;4.80;;;;;;;17.94;85.89;97578.81;5044746;28;20516;-67
2022/09/05 01:08:56;;;;;;;6.37;4.47;;;;;;;17.91;86.12;97588.00;5038673;28;20075;-68
2022/09/05 01:12:17;;;;;;;8.57;4.63;;;;;;;17.75;86.41;97576.47;5024743;28;21223;-68
2022/09/05 01:15:04;;;;;;;6.82;4.35;;;;;;;17.58;86.28;97538.06;5023295;28;20057;-69
2022/09/05 01:17:46;;;;;;;6.97;4.53;;;;;;;17.76;86.70;97578.06;5024709;28;20448;-69
2022/09/05 01:20:32;;;;;;;9.95;4.85;;;;;;;17.66;87.40;97590.06;5023408;28;20565;-68
2022/09/05 01:23:28;;;;;;;7.45;4.75;;;;;;;17.65;87.10;97566.88;5025071;28;20056;-68
2022/09/05 01:26:08;;;;;;;5.85;4.90;;;;;;;17.65;87.46;97566.06;5023954;28;20057;-69
2022/09/05 01:29:03;;;;;;;6.18;4.80;;;;;;;17.68;87.00;97565.25;5024445;28;20070;-67
2022/09/05 01:32:14;;;;;;;7.97;4.70;;;;;;;17.54;88.29;97559.69;5019872;28;20065;-67
2022/09/05 01:34:52;;;;;;;6.72;4.40;;;;;;;17.58;88.06;97549.25;5024539;28;20057;-68
2022/09/05 01:37:29;;;;;;;5.60;5.07;;;;;;;17.50;88.28;97547.69;5024479;28;20076;-68
2022/09/05 01:40:19;;;;;;;5.47;4.45;;;;;;;17.51;87.88;97550.09;5023502;28;20049;-67
2022/09/05 01:42:53;;;;;;;7.43;4.90;;;;;;;17.52;87.74;97550.88;5023104;28;20053;-66
2022/09/05 01:45:31;;;;;;;5.68;4.32;;;;;;;17.52;87.12;97548.09;5022787;28;20448;-67
2022/09/05 01:48:05;;;;;;;7.22;4.95;;;;;;;17.42;87.76;97551.69;5024712;28;20057;-67
2022/09/05 01:50:52;;;;;;;7.25;5.05;;;;;;;17.36;88.19;97553.28;5024680;28;20057;-67
2022/09/05 01:53:35;;;;;;;6.65;4.93;;;;;;;16.63;88.68;97453.38;5023033;28;20084;-68
2022/09/05 01:56:20;;;;;;;5.88;4.75;;;;;;;17.21;90.13;97554.50;5023069;28;20064;-67
2022/09/05 01:59:24;;;;;;;6.28;4.82;;;;;;;17.20;90.13;97555.72;5022977;28;20341;-67
2022/09/05 02:02:48;;;;;;;8.52;5.25;;;;;;;16.69;90.67;97485.34;5024355;28;20072;-68
2022/09/05 02:05:55;;;;;;;7.05;4.50;;;;;;;17.01;91.81;97570.91;4981968;28;20054;-67
2022/09/05 02:08:24;;;;;;;6.75;5.07;;;;;;;16.94;92.25;97564.50;4982210;28;20061;-68
2022/09/05 02:11:02;;;;;;;7.03;5.15;;;;;;;16.96;92.85;97562.13;5001957;28;20064;-67
2022/09/05 02:13:34;;;;;;;7.45;4.85;;;;;;;16.87;92.96;97570.09;5004794;28;20074;-68
2022/09/05 02:16:17;;;;;;;7.40;5.10;;;;;;;16.89;92.59;97567.69;5004358;28;20060;-69
2022/09/05 02:18:52;;;;;;;6.80;4.53;;;;;;;16.84;92.80;97565.28;5003157;28;20053;-67
2022/09/05 02:21:40;;;;;;;7.57;4.70;;;;;;;16.64;93.98;97562.84;5004595;28;20065;-69
2022/09/05 02:24:45;;;;;;;5.82;4.78;;;;;;;16.59;94.13;97566.06;5003630;28;20425;-68
2022/09/05 02:27:39;;;;;;;6.40;4.53;;;;;;;16.49;94.64;97564.03;5003124;28;20049;-68
2022/09/05 02:30:34;;;;;;;7.28;4.90;;;;;;;15.58;95.01;97431.59;5003166;28;20050;-67
2022/09/05 02:33:20;;;;;;;5.75;4.93;;;;;;;16.30;96.63;97564.38;5004445;28;20065;-69
2022/09/05 02:36:24;;;;;;;7.13;5.00;;;;;;;16.33;96.76;97562.75;5003241;28;20060;-69
2022/09/05 02:39:01;;;;;;;7.80;5.25;;;;;;;16.23;97.02;97547.56;5008166;28;20461;-68
2022/09/05 02:41:56;;;;;;;8.63;4.47;;;;;;;16.31;96.82;97554.78;5006874;28;20119;-68
2022/09/05 02:44:51;;;;;;;7.93;4.95;;;;;;;16.40;95.86;97563.59;5006304;28;20049;-69
2022/09/05 02:47:51;;;;;;;6.30;4.40;;;;;;;16.40;95.21;97568.38;5007637;28;20053;-69
2022/09/05 02:50:39;;;;;;;8.02;5.07;;;;;;;16.27;96.03;97553.97;5007638;28;20397;-69
2022/09/05 02:53:28;;;;;;;7.15;5.03;;;;;;;16.37;95.55;97564.41;5007702;28;20074;-67
2022/09/05 02:56:23;;;;;;;8.35;4.90;;;;;;;16.39;94.55;97567.56;5007204;28;20139;-69
2022/09/05 02:59:29;;;;;;;7.97;4.72;;;;;;;16.41;93.78;97565.19;5007416;28;20445;-68
2022/09/05 03:02:25;;;;;;;4.78;4.22;;;;;;;15.90;94.59;97511.50;5007429;28;20058;-69
2022/09/05 03:05:04;;;;;;;6.38;5.10;;;;;;;16.24;96.10;97562.34;5005848;28;20115;-68
2022/09/05 03:07:50;;;;;;;9.77;5.85;;;;;;;16.32;96.81;97559.19;5006693;28;20080;-68
2022/09/05 03:10:47;;;;;;;6.93;4.68;;;;;;;16.18;96.19;97572.31;5007247;28;20053;-69
2022/09/05 03:13:46;;;;;;;7.82;4.15;;;;;;;16.19;96.40;97565.50;5007092;28;20054;-67
2022/09/05 03:16:47;;;;;;;6.43;4.38;;;;;;;16.14;96.12;97561.09;5007079;28;20073;-68
2022/09/05 03:19:19;;;;;;;7.05;4.75;;;;;;;16.02;96.98;97578.25;5007207;28;20085;-68
2022/09/05 03:22:08;;;;;;;6.18;4.43;;;;;;;16.06;97.38;97567.09;5005968;28;20064;-68
2022/09/05 03:24:53;;;;;;;8.40;5.00;;;;;;;16.02;97.30;97569.84;5006012;28;20062;-67
2022/09/05 03:27:30;;;;;;;6.70;4.95;;;;;;;16.03;96.92;97577.03;5006866;28;20094;-68
2022/09/05 03:30:07;;;;;;;7.22;4.68;;;;;;;15.29;97.03;97464.13;5005594;28;20137;-69
2022/09/05 03:33:19;;;;;;;6.10;4.90;;;;;;;16.03;97.20;97577.03;5005718;28;20061;-67
2022/09/05 03:36:03;;;;;;;9.00;5.25;;;;;;;16.07;97.32;97579.84;5006761;28;20058;-68
2022/09/05 03:38:58;;;;;;;8.93;5.28;;;;;;;16.19;96.37;97577.50;5006442;28;20064;-67
2022/09/05 03:41:54;;;;;;;7.18;4.75;;;;;;;16.22;96.08;97584.28;5006901;28;20065;-68
2022/09/05 03:44:40;;;;;;;11.57;6.22;;;;;;;16.19;96.45;97583.09;5006289;28;20049;-67
2022/09/05 03:47:24;;;;;;;7.80;5.80;;;;;;;15.45;97.93;97498.16;5006527;28;20149;-69
2022/09/05 03:50:09;;;;;;;6.60;5.90;;;;;;;16.07;98.67;97594.63;5004706;28;20058;-69
2022/09/05 03:53:39;;;;;;;8.15;5.47;;;;;;;16.19;98.29;97599.88;5006309;28;20050;-68
2022/09/05 03:56:54;;;;;;;6.20;5.55;;;;;;;15.89;98.64;97565.81;5005404;28;20140;-68
2022/09/05 04:00:13;;;;;;;7.35;5.00;;;;;;;16.10;100.00;97605.03;5005312;28;20091;-69
2022/09/05 04:02:58;;;;;;;10.73;5.88;;;;;;;15.58;100.00;97544.09;5002008;28;20880;-67
2022/09/05 04:05:49;;;;;;;8.77;6.30;;;;;;;16.00;100.00;97605.78;5004827;28;20124;-68
2022/09/05 04:09:18;;;;;;;10.55;5.97;;;;;;;15.77;100.00;97608.06;5006788;28;20053;-68
2022/09/05 04:12:38;;;;;;;11.55;5.68;;;;;;;15.78;100.00;97576.13;5042903;28;20110;-69
2022/09/05 04:15:31;;;;;;;8.15;6.97;;;;;;;16.09;100.00;97619.41;5044634;28;20049;-67
2022/09/05 04:18:04;;;;;;;12.73;5.65;;;;;;;16.14;100.00;97631.00;5039649;28;20462;-68
2022/09/05 04:20:57;;;;;;;10.27;6.35;;;;;;;15.54;100.00;97621.47;5045778;28;20064;-68
2022/09/05 04:23:53;;;;;;;13.65;6.28;;;;;;;15.42;100.00;97613.41;5044614;28;20067;-69
2022/09/05 04:26:37;;;;;;;12.77;6.47;;;;;;;15.82;100.00;97621.63;5045846;28;20075;-68
2022/09/05 04:29:26;;;;;;;12.88;6.18;;;;;;;16.06;100.00;97632.16;5044586;28;20122;-68
2022/09/05 04:32:19;;;;;;;10.15;6.72;;;;;;;16.01;100.00;97629.72;5046149;28;20472;-69
2022/09/05 04:35:13;;;;;;;7.38;6.10;;;;;;;15.70;99.24;97562.50;5031080;28;20091;-68
2022/09/05 04:38:10;;;;;;;13.30;5.97;;;;;;;16.47;96.53;97646.75;5045992;28;20415;-70
2022/09/05 04:40:41;;;;;;;11.38;5.20;;;;;;;16.49;94.39;97633.16;5045418;28;20052;-67
2022/09/05 04:43:26;;;;;;;6.80;4.82;;;;;;;16.70;92.92;97654.81;5044118;28;20484;-67
2022/09/05 04:46:03;;;;;;;6.43;4.95;;;;;;;16.57;92.99;97652.38;5043795;28;20061;-66
2022/09/05 04:48:57;;;;;;;5.00;4.10;;;;;;;16.72;91.82;97653.22;5045553;28;20408;-67
2022/09/05 04:51:51;;;;;;;7.35;4.68;;;;;;;16.93;90.67;97658.06;5045067;28;20057;-68
2022/09/05 04:54:51;;;;;;;9.82;4.68;;;;;;;17.14;89.62;97663.69;5045216;28;20060;-69
2022/09/05 04:57:29;;;;;;;7.25;5.30;;;;;;;16.81;88.65;97611.66;5045188;28;20060;-68
2022/09/05 05:00:11;;;;;;;6.30;3.88;;;;;;;17.26;88.03;97671.72;5043618;28;20080;-68
2022/09/05 05:03:03;;;;;;;7.32;5.97;;;;;;;17.48;86.82;97673.34;5044665;28;20049;-67
2022/09/05 05:06:05;;;;;;;6.57;4.72;;;;;;;17.57;86.29;97676.56;5045003;28;20098;-68
2022/09/05 05:09:11;;;;;;;6.18;4.53;;;;;;;17.54;85.83;97678.16;5036899;28;20115;-68
2022/09/05 05:11:58;;;;;;;8.07;4.45;;;;;;;17.67;85.54;97681.38;5025020;28;20061;-69
2022/09/05 05:14:52;;;;;;;7.75;4.75;;;;;;;17.85;84.68;97682.13;5025033;28;20056;-67
2022/09/05 05:17:51;;;;;;;7.55;4.97;;;;;;;16.91;83.54;97486.94;5025024;28;20049;-67
2022/09/05 05:21:07;;;;;;;5.55;3.97;;;;;;;18.31;81.26;97682.03;5023575;28;20527;-68
2022/09/05 05:23:42;;;;;;;7.50;4.55;;;;;;;18.45;80.70;97682.81;5000862;28;20065;-67
2022/09/05 05:26:18;;;;;;;8.77;4.85;;;;;;;18.08;79.92;97618.78;5023359;28;20061;-66
2022/09/05 05:29:07;;;;;;;6.20;4.40;;;;;;;18.57;80.34;97679.59;5024389;28;20057;-67
2022/09/05 05:31:45;;;;;;;6.60;5.00;;;;;;;18.52;80.11;97653.94;5024581;28;20053;-68
2022/09/05 05:34:26;;;;;;;10.20;5.03;;;;;;;17.73;80.05;97531.22;5024764;28;20065;-68
2022/09/05 05:37:13;;;;;;;5.97;4.38;;;;;;;18.84;80.81;97696.69;5023549;28;20107;-68
2022/09/05 05:39:45;;;;;;;5.82;4.68;;;;;;;17.95;80.66;97546.75;5024943;28;20462;-68
2022/09/05 05:42:21;;;;;;;6.05;4.15;;;;;;;18.93;80.77;97703.47;5024701;28;20605;-68
2022/09/05 05:44:54;;;;;;;4.18;3.78;;;;;;;18.98;80.87;97700.22;5023226;28;20057;-67
2022/09/05 05:47:27;;;;;;;7.28;4.05;;;;;;;18.90;79.78;97697.88;5023196;28;20056;-69
2022/09/05 05:50:06;;;;;;;4.65;4.13;;;;;;;18.95;80.04;97692.59;5024825;28;20069;-68
2022/09/05 05:52:54;;;;;;;5.15;4.45;;;;;;;18.85;79.50;97662.59;5023118;28;20077;-68
2022/09/05 05:55:39;;;;;;;5.65;4.35;;;;;;;19.49;78.25;97696.69;5022625;28;20055;-67
2022/09/05 05:58:36;;;;;;;5.90;3.97;;;;;;;19.32;76.98;97619.78;5024004;28;20130;-66
2022/09/05 06:01:25;;;;;;;5.88;4.13;;;;;;;19.98;76.49;97689.88;5024796;28;20056;-68
2022/09/05 06:04:25;;;;;;;8.52;5.90;;;;;;;20.14;75.46;97695.78;5024225;28;20091;-67
2022/09/05 06:07:30;;;;;;;5.88;4.72;;;;;;;20.38;72.90;97692.69;5024280;28;20057;-67
2022/09/05 06:10:41;;;;;;;5.20;4.63;;;;;;;20.50;73.03;97694.19;5017124;28;20058;-64
2022/09/05 06:14:05;;;;;;;6.43;4.72;;;;;;;20.71;71.13;97691.09;5010093;28;20053;-65
2022/09/05 06:17:01;;;;;;;5.35;4.80;;;;;;;20.88;68.59;97692.91;5020476;28;20106;-67
2022/09/05 06:19:52;;;;;;;5.88;3.88;;;;;;;21.08;68.01;97691.03;5013518;28;20069;-71
2022/09/05 06:23:12;;;;;;;5.15;4.20;;;;;;;21.12;67.84;97679.72;5021113;28;20061;-63
2022/09/05 06:26:18;;;;;;;6.28;4.38;;;;;;;21.45;66.76;97698.56;5009251;28;20045;-65
2022/09/05 06:29:05;;;;;;;6.47;4.50;;;;;;;21.37;66.53;97691.44;5016735;28;20053;-67
2022/09/05 06:31:43;;;;;;;5.30;4.22;;;;;;;21.41;66.20;97698.59;5026909;28;20064;-65
2022/09/05 06:34:21;;;;;;;7.55;4.45;;;;;;;21.33;64.52;97696.31;5026157;28;20527;-63
2022/09/05 06:37:13;;;;;;;5.55;4.35;;;;;;;21.23;63.85;97698.06;5006624;28;20065;-63
2022/09/05 06:39:51;;;;;;;6.82;4.70;;;;;;;21.24;64.07;97696.84;5006418;28;20110;-65
2022/09/05 06:42:44;;;;;;;5.63;4.45;;;;;;;21.22;64.32;97690.84;5006352;28;20053;-71
2022/09/05 06:45:39;;;;;;;6.13;4.05;;;;;;;21.20;64.95;97692.50;5016954;28;20077;-65
2022/09/05 06:48:17;;;;;;;3.75;3.45;;;;;;;21.25;64.56;97675.88;5018918;28;20058;-62
2022/09/05 06:51:28;;;;;;;6.38;4.43;;;;;;;21.44;65.20;97686.47;5025623;28;20053;-67
2022/09/05 06:54:19;;;;;;;6.15;4.18;;;;;;;21.70;64.20;97688.50;5011336;28;20432;-68
2022/09/05 06:56:55;;;;;;;5.40;4.40;;;;;;;21.82;63.93;97695.56;5011633;28;20525;-68
2022/09/05 06:59:48;;;;;;;4.72;4.25;;;;;;;21.48;64.01;97636.44;5007362;28;20080;-73
2022/09/05 07:02:33;;;;;;;5.33;4.73;;;;;;;21.79;63.18;97697.22;5010020;28;20050;-67
2022/09/05 07:05:31;;;;;;;6.35;4.90;;;;;;;21.35;64.79;97703.13;5017064;28;20041;-71
2022/09/05 07:08:25;;;;;;;5.40;4.50;;;;;;;21.25;65.07;97701.25;5011615;28;20436;-70
2022/09/05 07:11:07;;;;;;;5.45;4.00;;;;;;;21.49;62.06;97665.47;5012955;28;20064;-67
2022/09/05 07:13:51;;;;;;;7.40;4.65;;;;;;;22.04;60.48;97706.06;5006166;28;20050;-75
2022/09/05 07:16:29;;;;;;;12.15;4.82;;;;;;;20.92;60.54;97519.00;5006267;28;20167;-69
2022/09/05 07:19:36;;;;;;;7.05;4.88;;;;;;;22.61;59.04;97702.19;5006156;28;20046;-71
2022/09/05 07:22:32;;;;;;;5.50;4.32;;;;;;;22.91;58.26;97704.81;5001021;28;20068;-68
2022/09/05 07:25:23;;;;;;;4.50;4.10;;;;;;;22.86;57.29;97699.69;5004569;28;20280;-61
2022/09/05 07:28:12;;;;;;;9.65;5.40;;;;;;;22.68;58.16;97696.41;5005096;28;20149;-64
2022/09/05 07:31:04;;;;;;;4.70;4.05;;;;;;;22.54;57.65;97702.34;5004879;28;20152;-63
2022/09/05 07:33:33;;;;;;;5.57;4.22;;;;;;;22.63;57.46;97722.34;5005924;28;20061;-64
2022/09/05 07:36:15;;;;;;;5.95;4.18;;;;;;;22.75;57.25;97690.59;5017571;28;20057;-64
2022/09/05 07:38:49;;;;;;;5.18;4.20;;;;;;;21.05;57.35;97477.78;5025690;28;20595;-65
2022/09/05 07:41:40;;;;;;;4.10;3.65;;;;;;;22.30;57.08;97665.63;5022290;28;20050;-67
2022/09/05 07:44:22;;;;;;;6.07;3.95;;;;;;;21.93;57.79;97668.75;5021310;28;20049;-62
2022/09/05 07:47:05;;;;;;;3.55;3.25;;;;;;;22.18;56.80;97700.16;5023445;28;20504;-78
2022/09/05 07:49:35;;;;;;;4.13;3.72;;;;;;;22.40;56.86;97694.91;5005639;28;20053;-71
2022/09/05 07:52:21;;;;;;;16.38;4.28;;;;;;;21.49;56.03;97508.38;5025070;28;20179;-72
2022/09/05 07:55:18;;;;;;;4.18;3.78;;;;;;;22.46;56.28;97597.19;5023418;28;20060;-65
2022/09/05 07:58:11;;;;;;;3.70;3.40;;;;;;;22.32;55.07;97572.03;5024269;28;20045;-68
2022/09/05 08:00:38;;;;;;;4.82;3.45;;;;;;;22.64;54.29;97616.59;5005047;28;20045;-62
2022/09/05 08:03:13;;;;;;;3.80;2.95;;;;;;;22.57;53.90;97588.50;5004092;28;20069;-73
2022/09/05 08:05:45;;;;;;;4.07;3.72;;;;;;;23.31;54.11;97678.09;5013454;28;20053;-62
2022/09/05 08:08:22;;;;;;;4.07;3.67;;;;;;;23.46;53.38;97679.34;5014286;28;20056;-70
2022/09/05 08:10:55;;;;;;;4.55;3.28;;;;;;;23.41;53.13;97648.78;5016144;28;20080;-64
2022/09/05 08:13:52;;;;;;;3.95;3.65;;;;;;;23.18;51.64;97572.56;5011574;28;20056;-62
2022/09/05 08:16:33;;;;;;;3.45;3.15;;;;;;;23.71;51.38;97634.31;5020863;28;20054;-61
2022/09/05 08:19:30;;;;;;;7.85;3.75;;;;;;;24.19;51.01;97656.91;5017088;28;20057;-61
2022/09/05 08:21:59;;;;;;;3.88;3.47;;;;;;;24.22;50.60;97615.56;5020898;28;20131;-62
2022/09/05 08:24:35;;;;;;;5.05;4.55;;;;;;;24.33;49.65;97597.03;5005307;28;20050;-66
2022/09/05 08:27:12;;;;;;;3.85;2.83;;;;;;;24.63;47.11;97660.94;5005923;28;20054;-67
2022/09/05 08:30:09;;;;;;;3.40;2.78;;;;;;;24.56;46.05;97604.50;5004162;28;20145;-60
2022/09/05 08:33:02;;;;;;;4.07;3.35;;;;;;;24.30;46.53;97574.47;5004481;28;20073;-60
2022/09/05 08:35:59;;;;;;;9.43;5.38;;;;;;;24.23;45.98;97623.66;5004555;28;20109;-62
2022/09/05 08:38:31;;;;;;;5.45;4.07;;;;;;;24.55;46.08;97649.03;5005143;28;20068;-72
2022/09/05 08:41:27;;;;;;;11.23;5.70;;;;;;;24.26;45.46;97605.75;5005596;28;20063;-69
2022/09/05 08:44:27;;;;;;;8.60;5.70;;;;;;;24.55;45.31;97637.69;5003290;28;20074;-68
2022/09/05 08:47:33;;;;;;;3.88;3.45;;;;;;;24.77;45.60;97641.53;5006393;28;20049;-70
2022/09/05 08:50:45;;;;;;;3.53;3.22;;;;;;;24.26;44.94;97608.59;5012821;28;20088;-68
2022/09/05 08:53:20;;;;;;;6.03;3.42;;;;;;;24.37;46.41;97650.78;5013199;28;20186;-66
2022/09/05 08:56:21;;;;;;;2.60;2.40;;;;;;;24.79;44.30;97612.72;5006682;28;20077;-66
2022/09/05 08:59:09;;;;;;;3.03;2.72;;;;;;;25.25;43.52;97646.94;5005280;28;20646;-68
2022/09/05 09:02:13;;;;;;;3.42;2.92;;;;;;;25.44;43.23;97652.88;5016718;28;20531;-73
2022/09/05 09:05:19;;;;;;;4.63;2.95;;;;;;;25.37;42.62;97647.44;5007874;28;20057;-64
2022/09/05 09:07:57;;;;;;;6.68;4.55;;;;;;;23.23;41.76;97355.16;5015254;28;20538;-63
2022/09/05 09:10:41;;;;;;;3.97;3.55;;;;;;;25.21;41.64;97646.25;5006579;28;20104;-63
2022/09/05 09:13:10;;;;;;;3.97;2.92;;;;;;;25.38;42.13;97644.13;5007698;28;20107;-65
2022/09/05 09:16:03;;;;;;;5.22;3.63;;;;;;;25.25;40.70;97646.94;5019941;28;20049;-64
2022/09/05 09:18:57;;;;;;;5.85;4.00;;;;;;;25.35;41.39;97647.88;5004296;28;20148;-68
2022/09/05 09:21:33;;;;;;;3.38;3.05;;;;;;;25.64;41.19;97636.41;5004769;28;20501;-62
2022/09/05 09:24:13;;;;;;;5.97;3.30;;;;;;;24.27;41.46;97445.13;5004502;28;20081;-62
2022/09/05 09:26:48;;;;;;;6.05;3.45;;;;;;;25.62;41.64;97624.72;5004323;28;20065;-62
2022/09/05 09:29:17;;;;;;;11.32;5.75;;;;;;;25.67;41.46;97627.75;5008308;28;20050;-62
2022/09/05 09:32:16;;;;;;;16.40;8.50;;;;;;;25.25;42.25;97629.94;5020256;28;20056;-64
2022/09/05 09:35:01;;;;;;;10.95;6.18;;;;;;;25.74;41.71;97666.47;5023976;28;20185;-62
2022/09/05 09:38:07;;;;;;;12.82;7.97;;;;;;;26.02;41.34;97651.38;5018361;28;20050;-63
2022/09/05 09:40:33;;;;;;;9.88;4.63;;;;;;;25.87;41.18;97658.75;4996728;28;20137;-61
2022/09/05 09:43:10;;;;;;;4.88;3.47;;;;;;;26.12;40.79;97647.34;5002655;28;20049;-69
2022/09/05 09:46:14;;;;;;;3.55;2.90;;;;;;;23.85;40.63;97283.03;5003269;28;20062;-68
2022/09/05 09:48:49;;;;;;;11.95;7.40;;;;;;;26.20;40.30;97580.53;5009167;28;20057;-65
2022/09/05 09:51:21;;;;;;;33.83;16.08;;;;;;;26.81;39.99;97643.22;5004011;28;20133;-62
2022/09/05 09:53:51;;;;;;;9.45;6.32;;;;;;;27.00;39.37;97647.78;5006146;28;20046;-61
2022/09/05 09:56:20;;;;;;;3.20;3.00;;;;;;;27.09;39.84;97642.16;5016128;28;20061;-65
2022/09/05 09:59:25;;;;;;;3.50;3.20;;;;;;;27.16;39.09;97643.94;5021402;28;20064;-66
2022/09/05 10:02:09;;;;;;;9.35;2.80;;;;;;;27.03;39.31;97641.16;4998454;28;20075;-63
2022/09/05 10:05:40;;;;;;;4.35;3.22;;;;;;;27.23;39.32;97641.59;5004894;28;20050;-62
2022/09/05 10:09:11;;;;;;;2.85;2.60;;;;;;;26.73;39.17;97628.47;5009338;28;21495;-65
2022/09/05 10:12:38;;;;;;;3.17;2.80;;;;;;;26.07;40.00;97599.66;5014051;28;20607;-60
2022/09/05 10:15:23;;;;;;;2.90;2.70;;;;;;;26.87;39.64;97635.72;5004017;28;20485;-66
2022/09/05 10:18:19;;;;;;;3.38;3.10;;;;;;;27.36;37.80;97622.38;5002531;28;20072;-62
2022/09/05 10:21:00;;;;;;;2.85;2.65;;;;;;;27.28;38.06;97629.66;5003685;28;20558;-64
2022/09/05 10:24:20;;;;;;;9.60;3.10;;;;;;;26.72;39.02;97628.94;5004221;28;20616;-61
2022/09/05 10:26:50;;;;;;;2.78;2.38;;;;;;;27.18;38.23;97627.97;5002737;28;20061;-69
2022/09/05 10:29:45;;;;;;;5.40;3.30;;;;;;;27.23;37.71;97596.06;5002268;28;20061;-64
2022/09/05 10:32:43;;;;;;;4.15;2.63;;;;;;;25.94;39.90;97635.81;5009684;28;20045;-67
2022/09/05 10:35:35;;;;;;;3.15;2.70;;;;;;;25.57;40.84;97639.47;4994695;28;20060;-67
2022/09/05 10:38:10;;;;;;;5.70;3.90;;;;;;;24.38;40.81;97400.28;5014681;28;20081;-64
2022/09/05 10:40:44;;;;;;;2.50;2.30;;;;;;;25.29;40.77;97629.81;5003938;28;20054;-63
2022/09/05 10:43:44;;;;;;;4.50;3.00;;;;;;;25.36;41.75;97628.81;5003489;28;20417;-65
2022/09/05 10:46:20;;;;;;;4.13;3.00;;;;;;;25.27;40.41;97507.50;5001887;28;20050;-63
2022/09/05 10:49:09;;;;;;;5.35;3.35;;;;;;;26.39;38.92;97619.19;5002422;28;20058;-67
2022/09/05 10:51:59;;;;;;;2.08;1.98;;;;;;;25.52;39.76;97618.13;5002160;28;20073;-65
2022/09/05 10:55:04;;;;;;;7.35;4.75;;;;;;;25.57;40.16;97616.78;5004455;28;20496;-66
2022/09/05 10:58:19;;;;;;;6.35;4.63;;;;;;;25.51;40.89;97621.44;5004607;28;20111;-67
2022/09/05 11:01:24;;;;;;;4.78;3.15;;;;;;;25.02;41.45;97593.38;4965241;28;20092;-66
2022/09/05 11:04:18;;;;;;;4.20;2.80;;;;;;;25.10;41.79;97606.06;4962435;28;20118;-61
2022/09/05 11:06:45;;;;;;;4.35;2.42;;;;;;;25.41;41.87;97614.06;5020605;28;20473;-62
2022/09/05 11:09:20;;;;;;;3.70;2.67;;;;;;;25.36;41.18;97553.00;5026448;28;20367;-62
2022/09/05 11:12:02;;;;;;;2.15;1.95;;;;;;;25.88;40.73;97603.53;5026244;28;20456;-61
2022/09/05 11:14:41;;;;;;;3.10;2.17;;;;;;;25.93;40.97;97617.16;5025834;28;20049;-63
2022/09/05 11:17:26;;;;;;;3.88;3.17;;;;;;;25.98;41.15;97619.41;5026413;28;20065;-62
2022/09/05 11:20:22;;;;;;;3.00;2.70;;;;;;;25.96;40.84;97605.69;5026883;28;20079;-62
2022/09/05 11:23:29;;;;;;;3.30;2.97;;;;;;;25.04;40.50;97511.50;5022066;28;20498;-64
2022/09/05 11:26:03;;;;;;;3.92;2.55;;;;;;;25.27;40.36;97553.69;5006575;28;20137;-66
2022/09/05 11:28:47;;;;;;;3.03;2.75;;;;;;;26.01;39.77;97601.50;5006587;28;20057;-67
2022/09/05 11:31:35;;;;;;;2.80;2.60;;;;;;;25.84;41.61;97603.69;5013286;28;20054;-62
2022/09/05 11:34:24;;;;;;;3.60;2.53;;;;;;;25.99;41.48;97604.75;5006517;28;20162;-61
2022/09/05 11:37:46;;;;;;;3.00;2.80;;;;;;;25.19;41.78;97586.38;5006472;28;20065;-66
2022/09/05 11:40:51;;;;;;;3.95;2.88;;;;;;;25.44;42.07;97604.63;4998608;28;20066;-62
2022/09/05 11:43:52;;;;;;;2.60;2.40;;;;;;;25.12;41.61;97592.25;5005681;28;20136;-61
2022/09/05 11:47:01;;;;;;;3.05;2.60;;;;;;;25.39;41.29;97582.53;5005748;28;20811;-63
2022/09/05 11:50:09;;;;;;;3.42;2.50;;;;;;;25.24;42.08;97594.28;5009657;28;20554;-62
2022/09/05 11:52:51;;;;;;;3.97;2.88;;;;;;;25.77;42.41;97586.06;5006202;28;20534;-62
2022/09/05 11:55:33;;;;;;;3.78;3.42;;;;;;;25.71;43.84;97605.75;5012969;28;20471;-61
2022/09/05 11:58:23;;;;;;;2.92;2.72;;;;;;;25.21;44.03;97603.69;5021396;28;20068;-63
2022/09/05 12:01:26;;;;;;;3.17;2.65;;;;;;;24.86;44.46;97596.31;5008187;28;20060;-66
2022/09/05 12:04:39;;;;;;;4.95;3.05;;;;;;;25.03;44.11;97606.31;5018881;28;20156;-66
2022/09/05 12:07:28;;;;;;;3.30;3.00;;;;;;;24.89;44.36;97588.94;5022192;28;20046;-61
2022/09/05 12:10:37;;;;;;;5.57;2.53;;;;;;;25.06;42.84;97556.41;5005129;28;20056;-60
2022/09/05 12:13:36;;;;;;;3.50;2.60;;;;;;;25.64;43.32;97579.66;5006335;28;20180;-60
2022/09/05 12:16:19;;;;;;;2.60;2.40;;;;;;;25.23;42.91;97535.97;5014604;28;20078;-65
2022/09/05 12:19:27;;;;;;;4.47;3.35;;;;;;;25.54;42.59;97577.97;5010550;28;20141;-63
2022/09/05 12:22:48;;;;;;;3.70;3.00;;;;;;;24.98;43.80;97578.53;4985771;28;20054;-63
2022/09/05 12:25:31;;;;;;;2.60;2.35;;;;;;;25.11;43.90;97585.00;4978415;28;20442;-69
2022/09/05 12:28:35;;;;;;;5.30;2.55;;;;;;;25.01;43.40;97586.13;5023148;28;20060;-62
2022/09/05 12:31:25;;;;;;;;;;;;;;;25.08;43.34;97574.56;5016398;28;20053;-58
2022/09/05 12:34:20;;;;;;;3.63;2.47;;;;;;;25.22;43.04;97584.66;5021983;28;19924;-68
2022/09/05 12:37:11;;;;;;;3.20;2.55;;;;;;;24.79;43.20;97573.84;5003928;28;20104;-64
2022/09/05 12:40:11;;;;;;;4.40;3.92;;;;;;;25.18;42.43;97573.41;5031544;28;20064;-65
2022/09/05 12:43:04;;;;;;;3.78;2.15;;;;;;;25.31;42.02;97565.69;5009646;28;20107;-68
2022/09/05 12:46:02;;;;;;;3.08;2.88;;;;;;;24.87;42.29;97446.88;5023542;28;20068;-66
2022/09/05 12:48:47;;;;;;;2.58;2.22;;;;;;;25.39;42.74;97579.69;5023119;28;20134;-66
2022/09/05 12:51:20;;;;;;;2.70;2.50;;;;;;;25.13;42.98;97556.19;5023881;28;20532;-68
2022/09/05 12:54:16;;;;;;;2.70;2.50;;;;;;;25.34;42.79;97580.25;5022132;28;20053;-68
2022/09/05 12:57:06;;;;;;;3.05;2.10;;;;;;;25.11;42.53;97579.31;5024235;28;20103;-68
2022/09/05 13:00:01;;;;;;;3.38;2.40;;;;;;;25.64;43.36;97571.13;5024340;28;20049;-66
2022/09/05 13:02:56;;;;;;;2.45;2.25;;;;;;;25.86;42.77;97572.00;5024768;28;20425;-65
2022/09/05 13:05:51;;;;;;;2.92;2.70;;;;;;;26.04;42.54;97577.84;5024222;28;20274;-67
2022/09/05 13:08:21;;;;;;;4.60;2.72;;;;;;;25.55;43.54;97582.38;5022967;28;20053;-66
2022/09/05 13:10:52;;;;;;;5.72;2.38;;;;;;;25.27;43.33;97584.88;5024444;28;20495;-66
2022/09/05 13:13:53;;;;;;;2.85;2.60;;;;;;;24.54;43.19;97516.31;5024503;28;20054;-66
2022/09/05 13:16:46;;;;;;;4.45;2.65;;;;;;;25.37;41.61;97550.97;5023365;28;20089;-66
2022/09/05 13:19:29;;;;;;;4.25;2.60;;;;;;;25.08;42.47;97574.56;5024728;28;20065;-66